NCAR-RAP Real-Time Weather Data

Output produced by METARs form (21 May 2019  11:39 UTC)
found at http://weather.rap.ucar.edu/surface/
 
RJBB 211100Z 35009KT 9999 FEW030 BKN/// 20/14 Q1004 NOSIG
 
RJBD 211000Z 32011KT 9999 FEW040 20/13 Q1002
 
RJBE 211100Z 02008KT 9999 FEW040 BKN/// 21/08 Q1004
 
RJBT 210900Z 36004KT 9999 FEW040 BKN/// 18/06 Q1005
 
RJOA 211100Z 35010KT 9999 FEW025 17/05 Q1006
 
RJOB 211100Z 36004KT 330V030 9999 FEW030 SCT050 18/07 Q1005
 
RJOC 211100Z 23007KT CAVOK 17/10 Q1006
 
RJOH 211100Z 24012KT 9999 FEW/// 18/06 Q1006
 
RJOI 211055Z 30008KT 9999 FEW030 FEW250 19/06 A2971 RMK SLP061 T01940056
 
RJOK 211100Z 36002KT CAVOK 19/14 Q1004
 
RJOM 211100Z 17006KT 140V210 9999 FEW035 SCT/// 19/11 Q1006
 
RJOO 211100Z 32010KT 9999 FEW030 SCT/// 20/08 Q1005 RMK 1CU030 A2968
 
RJOR 211100Z 22003KT CAVOK 17/13 Q1006
 
RJOT 211100Z 23007KT 9999 FEW030 SCT/// 17/11 Q1005
 
RJOW 211000Z 25006KT CAVOK 18/08 Q1006
 
RJOY 211000Z 01010KT 9999 FEW030 22/08 Q1003
 
RJDC 211100Z 29006KT 250V330 CAVOK 18/08 Q1007
 
RJDT 211100Z VRB02KT CAVOK 18/10 Q1006
 
RJFE 211000Z 33008KT 280V010 CAVOK 19/07 Q1007
 
RJFF 211130Z VRB02KT CAVOK 19/08 Q1007 BECMG TL1300 15005KT RMK A2976
 
RJFG 210900Z 30015KT CAVOK 20/13 Q1005
 
RJFK 211100Z 33008KT 9999 FEW040 16/10 Q1007 RMK 1CU040 A2974
 
RJFO 211100Z 31010KT CAVOK 19/02 Q1006
 
RJFR 211100Z 01005KT CAVOK 18/08 Q1007
 
RJFS 211100Z 31004KT 290V360 CAVOK 17/09 Q1007
 
RJFT 211100Z 29005KT 260V350 CAVOK 17/04 Q1007
 
RJFU 211100Z 31008KT CAVOK 18/09 Q1008
 
RJFM 211100Z 11003KT 9999 FEW035 20/15 Q1005
 
 
RJFG 210900Z 30015KT CAVOK 20/13 Q1005